Decoded Metar for KJNX (SMITHFIELD JOHNS in NC, USA) (IATA:JNX) | Meteo·Mobile Aviation Weather
aviador You're here:

KJNX Decoded Metar

SMITHFIELD JOHNS in NC, USA
Report Time2020-02-22 08:55:00
UTC Time2020-02-22 09:42:16
Flight Rules vfr VFR
WindCalm
Visibility9999 m
Phenomena:N/A
Clouds:N/A
CeilingNone
Temp-5°C (ISA -20)
Dew Point-5°C (100% RH)
AAT-7.6°C
QNH1031 hPa
Density Alt-2,825 ft
Elevation164 ft
Report Wrong Elevation
Raw Report
METAR KJNX 220855Z AUTO 00000KT 10SM CLR M05/M05 A3044 RMK AO2=

Extra information for KJNX:More info

Metar Taf Metar & Taf Last 4 Metars F.Rules Stats Wind Profile Meteogram Temp Stats Airport Information Weather charts Add Link Nearby VenuesMetar ALERT Operation Metar Decoded Social comments

AIRNAV info for KJNX